Time,TemperatureF,DewpointF,PressureIn,WindDirection,WindDirectionDegrees,WindSpeedMPH,WindSpeedGustMPH,Humidity,HourlyPrecipIn,Conditions,Clouds,dailyrainin,SoftwareType,DateUTC
2013-09-27 10:22:00,51.0,46.0,30.21,North,-999,-999.0,-999.0,82,0.00,,,0.00,,2013-09-27 14:22:00,
2013-09-27 10:32:00,51.0,46.0,30.21,North,-999,-999.0,-999.0,82,0.00,,,0.00,,2013-09-27 14:32:00,
2013-09-27 10:42:00,51.0,46.0,30.21,North,-999,-999.0,-999.0,82,0.00,,,0.00,,2013-09-27 14:42:00,
2013-09-27 11:54:00,63.0,53.0,30.21,South,180,0.0,0.0,69,0.00,,,0.00,,2013-09-27 15:54:00,
2013-09-27 12:24:00,64.0,53.0,30.21,South,180,0.0,0.0,67,0.00,,,0.00,,2013-09-27 16:24:00,
2013-09-27 12:53:00,65.0,53.0,30.21,SSW,202,0.0,0.0,64,0.00,,,0.00,,2013-09-27 16:53:00,
2013-09-27 13:13:00,64.0,52.0,30.21,North,-999,-999.0,-999.0,64,0.00,,,0.00,,2013-09-27 17:13:00,
2013-09-27 15:53:00,71.0,49.0,30.16,SE,135,0.0,0.0,45,0.00,,,0.00,,2013-09-27 19:53:00,
2013-09-27 16:22:00,73.0,50.0,30.15,SSW,202,0.0,0.0,45,0.00,,,0.00,,2013-09-27 20:22:00,
2013-09-27 16:52:00,75.0,51.0,30.14,SW,225,0.0,0.0,43,0.00,,,0.00,,2013-09-27 20:52:00,
2013-09-27 17:22:00,77.0,54.0,30.13,SSE,157,0.0,0.0,45,0.00,,,0.00,,2013-09-27 21:22:00,
2013-09-27 17:54:00,75.0,53.0,30.13,SSE,157,0.0,0.0,46,0.00,,,0.00,,2013-09-27 21:54:00,
2013-09-27 18:24:00,75.0,55.0,30.13,SSE,157,0.0,0.0,49,0.00,,,0.00,,2013-09-27 22:24:00,
2013-09-27 18:53:00,75.0,55.0,30.13,SSE,157,0.0,0.0,49,0.00,,,0.00,,2013-09-27 22:53:00,
2013-09-27 19:03:00,75.0,55.0,30.13,SSE,157,0.0,0.0,49,0.00,,,0.00,,2013-09-27 23:03:00,
2013-09-27 19:22:00,74.0,55.0,30.12,SE,135,0.0,0.0,51,0.00,,,0.00,,2013-09-27 23:22:00,
2013-09-27 19:53:00,71.0,54.0,30.12,SE,135,0.0,0.0,54,0.00,,,0.00,,2013-09-27 23:53:00,
2013-09-27 20:22:00,68.0,52.0,30.12,SE,135,0.0,0.0,56,0.00,,,0.00,,2013-09-28 00:22:00,
2013-09-27 20:52:00,67.0,52.0,30.13,SE,135,0.0,0.0,58,0.00,,,0.00,,2013-09-28 00:52:00,
2013-09-27 21:22:00,65.0,51.0,30.14,SE,135,0.0,0.0,60,0.00,,,0.00,,2013-09-28 01:22:00,
2013-09-27 21:52:00,64.0,51.0,30.14,SE,135,0.0,0.0,62,0.00,,,0.00,,2013-09-28 01:52:00,
2013-09-27 22:22:00,62.0,50.0,30.16,SE,135,0.0,0.0,64,0.00,,,0.00,,2013-09-28 02:22:00,
2013-09-27 22:53:00,62.0,51.0,30.16,SE,135,0.0,0.0,66,0.00,,,0.00,,2013-09-28 02:53:00,
2013-09-27 23:22:00,62.0,51.0,30.16,SE,135,0.0,0.0,67,0.00,,,0.00,,2013-09-28 03:22:00,
2013-09-27 23:55:00,61.0,50.0,30.16,SE,135,0.0,0.0,67,0.00,,,0.00,,2013-09-28 03:55:00,